sensor_id;sensor_type;location;lat;lon;timestamp;temperature;humidity
68011;DHT22;54794;48.348;7.878;2023-01-01T00:02:33;16.50;60.20
68011;DHT22;54794;48.348;7.878;2023-01-01T00:05:08;16.50;60.20
68011;DHT22;54794;48.348;7.878;2023-01-01T00:07:39;16.50;60.20
68011;DHT22;54794;48.348;7.878;2023-01-01T00:10:09;16.40;60.10
68011;DHT22;54794;48.348;7.878;2023-01-01T00:13:00;16.40;60.10
68011;DHT22;54794;48.348;7.878;2023-01-01T00:15:30;16.40;60.10
68011;DHT22;54794;48.348;7.878;2023-01-01T00:18:00;16.40;60.10
68011;DHT22;54794;48.348;7.878;2023-01-01T00:20:34;16.50;60.10
68011;DHT22;54794;48.348;7.878;2023-01-01T00:23:03;16.30;60.10
68011;DHT22;54794;48.348;7.878;2023-01-01T00:25:33;16.30;60.10
68011;DHT22;54794;48.348;7.878;2023-01-01T00:28:03;16.30;60.10
68011;DHT22;54794;48.348;7.878;2023-01-01T00:30:32;16.30;60.20
68011;DHT22;54794;48.348;7.878;2023-01-01T00:33:11;16.30;60.20
68011;DHT22;54794;48.348;7.878;2023-01-01T00:35:38;16.20;60.20
68011;DHT22;54794;48.348;7.878;2023-01-01T00:38:12;16.20;60.20
68011;DHT22;54794;48.348;7.878;2023-01-01T00:40:42;16.20;60.80
68011;DHT22;54794;48.348;7.878;2023-01-01T00:43:14;16.20;60.30
68011;DHT22;54794;48.348;7.878;2023-01-01T00:45:45;16.20;60.30
68011;DHT22;54794;48.348;7.878;2023-01-01T00:48:22;16.10;60.40
68011;DHT22;54794;48.348;7.878;2023-01-01T00:50:53;16.10;60.40
68011;DHT22;54794;48.348;7.878;2023-01-01T00:53:26;16.10;60.50
68011;DHT22;54794;48.348;7.878;2023-01-01T00:55:56;16.10;60.60
68011;DHT22;54794;48.348;7.878;2023-01-01T00:58:25;16.10;60.70
68011;DHT22;54794;48.348;7.878;2023-01-01T01:00:58;16.20;60.90
68011;DHT22;54794;48.348;7.878;2023-01-01T01:03:28;16.20;61.00
68011;DHT22;54794;48.348;7.878;2023-01-01T01:08:35;16.40;61.00
68011;DHT22;54794;48.348;7.878;2023-01-01T01:13:46;16.50;60.90
68011;DHT22;54794;48.348;7.878;2023-01-01T01:16:29;16.50;60.80
68011;DHT22;54794;48.348;7.878;2023-01-01T01:19:03;16.60;60.80
68011;DHT22;54794;48.348;7.878;2023-01-01T01:21:37;16.60;60.60
68011;DHT22;54794;48.348;7.878;2023-01-01T01:24:08;16.60;60.60
68011;DHT22;54794;48.348;7.878;2023-01-01T01:26:41;16.70;60.60
68011;DHT22;54794;48.348;7.878;2023-01-01T01:29:11;16.70;60.50
68011;DHT22;54794;48.348;7.878;2023-01-01T01:31:41;16.70;60.50
68011;DHT22;54794;48.348;7.878;2023-01-01T01:34:12;16.70;60.40
68011;DHT22;54794;48.348;7.878;2023-01-01T01:36:45;16.70;60.40
68011;DHT22;54794;48.348;7.878;2023-01-01T01:39:14;16.80;60.40
68011;DHT22;54794;48.348;7.878;2023-01-01T01:41:45;16.80;60.30
68011;DHT22;54794;48.348;7.878;2023-01-01T01:47:38;16.80;60.30
68011;DHT22;54794;48.348;7.878;2023-01-01T01:50:31;16.70;60.30
68011;DHT22;54794;48.348;7.878;2023-01-01T01:55:42;16.70;60.20
68011;DHT22;54794;48.348;7.878;2023-01-01T01:58:22;16.70;60.20
68011;DHT22;54794;48.348;7.878;2023-01-01T02:01:02;16.70;60.20
68011;DHT22;54794;48.348;7.878;2023-01-01T02:06:21;16.70;60.20
68011;DHT22;54794;48.348;7.878;2023-01-01T02:08:59;16.70;60.20
68011;DHT22;54794;48.348;7.878;2023-01-01T02:11:32;16.70;60.20
68011;DHT22;54794;48.348;7.878;2023-01-01T02:14:05;16.70;60.10
68011;DHT22;54794;48.348;7.878;2023-01-01T02:16:55;16.70;60.20
68011;DHT22;54794;48.348;7.878;2023-01-01T02:23:08;16.70;60.20
68011;DHT22;54794;48.348;7.878;2023-01-01T02:32:15;16.70;60.20
68011;DHT22;54794;48.348;7.878;2023-01-01T02:41:18;16.70;60.10
68011;DHT22;54794;48.348;7.878;2023-01-01T02:43:53;16.70;60.10
68011;DHT22;54794;48.348;7.878;2023-01-01T02:46:31;16.60;60.10
68011;DHT22;54794;48.348;7.878;2023-01-01T02:49:05;16.70;60.10
68011;DHT22;54794;48.348;7.878;2023-01-01T02:52:02;16.70;60.20
68011;DHT22;54794;48.348;7.878;2023-01-01T02:54:52;16.60;60.10
68011;DHT22;54794;48.348;7.878;2023-01-01T02:57:56;16.60;60.10
68011;DHT22;54794;48.348;7.878;2023-01-01T03:00:51;16.60;60.10
68011;DHT22;54794;48.348;7.878;2023-01-01T03:03:38;16.60;60.10
68011;DHT22;54794;48.348;7.878;2023-01-01T03:06:28;16.60;60.00
68011;DHT22;54794;48.348;7.878;2023-01-01T03:12:28;16.60;60.00
68011;DHT22;54794;48.348;7.878;2023-01-01T03:15:26;16.70;60.10
68011;DHT22;54794;48.348;7.878;2023-01-01T03:18:06;16.70;60.00
68011;DHT22;54794;48.348;7.878;2023-01-01T03:20:41;16.70;60.00
68011;DHT22;54794;48.348;7.878;2023-01-01T03:23:17;16.70;59.90
68011;DHT22;54794;48.348;7.878;2023-01-01T03:25:56;16.70;59.90
68011;DHT22;54794;48.348;7.878;2023-01-01T03:28:34;16.80;60.00
68011;DHT22;54794;48.348;7.878;2023-01-01T03:31:08;16.80;59.90
68011;DHT22;54794;48.348;7.878;2023-01-01T03:34:02;16.80;60.00
68011;DHT22;54794;48.348;7.878;2023-01-01T03:36:38;16.80;59.90
68011;DHT22;54794;48.348;7.878;2023-01-01T03:39:18;16.80;59.80
68011;DHT22;54794;48.348;7.878;2023-01-01T03:42:33;16.90;59.80
68011;DHT22;54794;48.348;7.878;2023-01-01T03:45:37;16.90;59.80
68011;DHT22;54794;48.348;7.878;2023-01-01T03:48:12;16.90;59.70
68011;DHT22;54794;48.348;7.878;2023-01-01T03:53:48;16.90;59.80
68011;DHT22;54794;48.348;7.878;2023-01-01T03:59:15;16.90;59.60
68011;DHT22;54794;48.348;7.878;2023-01-01T04:01:55;16.90;59.50
68011;DHT22;54794;48.348;7.878;2023-01-01T04:04:29;16.90;59.70
68011;DHT22;54794;48.348;7.878;2023-01-01T04:07:02;16.90;59.70
68011;DHT22;54794;48.348;7.878;2023-01-01T04:09:47;16.90;59.60
68011;DHT22;54794;48.348;7.878;2023-01-01T04:12:21;17.00;59.60
68011;DHT22;54794;48.348;7.878;2023-01-01T04:14:57;16.90;59.60
68011;DHT22;54794;48.348;7.878;2023-01-01T04:17:29;16.90;59.70
68011;DHT22;54794;48.348;7.878;2023-01-01T04:19:59;16.90;59.70
68011;DHT22;54794;48.348;7.878;2023-01-01T04:22:35;16.90;59.60
68011;DHT22;54794;48.348;7.878;2023-01-01T04:25:13;16.90;59.60
68011;DHT22;54794;48.348;7.878;2023-01-01T04:27:43;16.90;59.50
68011;DHT22;54794;48.348;7.878;2023-01-01T04:30:20;16.90;59.60
68011;DHT22;54794;48.348;7.878;2023-01-01T04:32:53;16.90;59.50
68011;DHT22;54794;48.348;7.878;2023-01-01T04:35:22;16.90;59.50
68011;DHT22;54794;48.348;7.878;2023-01-01T04:37:52;16.90;59.50
68011;DHT22;54794;48.348;7.878;2023-01-01T04:40:24;16.90;59.50
68011;DHT22;54794;48.348;7.878;2023-01-01T04:42:56;16.90;59.40
68011;DHT22;54794;48.348;7.878;2023-01-01T04:45:26;16.90;59.50
68011;DHT22;54794;48.348;7.878;2023-01-01T04:47:56;16.90;59.40
68011;DHT22;54794;48.348;7.878;2023-01-01T04:50:27;16.90;59.40
68011;DHT22;54794;48.348;7.878;2023-01-01T04:53:00;17.00;59.40
68011;DHT22;54794;48.348;7.878;2023-01-01T04:55:35;16.90;59.40
68011;DHT22;54794;48.348;7.878;2023-01-01T04:58:04;16.90;59.30
68011;DHT22;54794;48.348;7.878;2023-01-01T05:00:36;17.00;59.30
68011;DHT22;54794;48.348;7.878;2023-01-01T05:03:09;16.90;59.20
68011;DHT22;54794;48.348;7.878;2023-01-01T05:05:38;17.00;59.20
68011;DHT22;54794;48.348;7.878;2023-01-01T05:08:18;17.00;59.30
68011;DHT22;54794;48.348;7.878;2023-01-01T05:10:51;17.00;59.20
68011;DHT22;54794;48.348;7.878;2023-01-01T05:13:21;17.00;59.10
68011;DHT22;54794;48.348;7.878;2023-01-01T05:15:50;17.00;59.10
68011;DHT22;54794;48.348;7.878;2023-01-01T05:18:19;17.00;59.10
68011;DHT22;54794;48.348;7.878;2023-01-01T05:21:03;17.00;59.10
68011;DHT22;54794;48.348;7.878;2023-01-01T05:23:36;17.00;58.90
68011;DHT22;54794;48.348;7.878;2023-01-01T05:26:13;17.00;59.00
68011;DHT22;54794;48.348;7.878;2023-01-01T05:28:46;17.00;58.90
68011;DHT22;54794;48.348;7.878;2023-01-01T05:31:21;17.00;58.80
68011;DHT22;54794;48.348;7.878;2023-01-01T05:33:57;17.00;59.30
68011;DHT22;54794;48.348;7.878;2023-01-01T05:36:34;17.10;58.90
68011;DHT22;54794;48.348;7.878;2023-01-01T05:39:14;17.10;58.80
68011;DHT22;54794;48.348;7.878;2023-01-01T05:41:43;17.10;58.80
68011;DHT22;54794;48.348;7.878;2023-01-01T05:44:12;17.10;58.80
68011;DHT22;54794;48.348;7.878;2023-01-01T05:46:49;17.10;58.80
68011;DHT22;54794;48.348;7.878;2023-01-01T05:49:21;17.10;58.80
68011;DHT22;54794;48.348;7.878;2023-01-01T05:51:48;17.10;58.80
68011;DHT22;54794;48.348;7.878;2023-01-01T05:54:17;17.10;58.70
68011;DHT22;54794;48.348;7.878;2023-01-01T05:56:54;17.00;58.60
68011;DHT22;54794;48.348;7.878;2023-01-01T05:59:22;17.10;58.70
68011;DHT22;54794;48.348;7.878;2023-01-01T06:01:55;17.10;58.70
68011;DHT22;54794;48.348;7.878;2023-01-01T06:04:27;17.00;58.60
68011;DHT22;54794;48.348;7.878;2023-01-01T06:06:59;17.00;58.70
68011;DHT22;54794;48.348;7.878;2023-01-01T06:09:30;17.00;58.60
68011;DHT22;54794;48.348;7.878;2023-01-01T06:12:01;17.00;58.60
68011;DHT22;54794;48.348;7.878;2023-01-01T06:14:31;17.00;58.60
68011;DHT22;54794;48.348;7.878;2023-01-01T06:17:00;17.00;58.50
68011;DHT22;54794;48.348;7.878;2023-01-01T06:19:35;17.00;58.40
68011;DHT22;54794;48.348;7.878;2023-01-01T06:22:09;17.00;58.50
68011;DHT22;54794;48.348;7.878;2023-01-01T06:24:41;17.00;58.30
68011;DHT22;54794;48.348;7.878;2023-01-01T06:27:11;17.00;58.50
68011;DHT22;54794;48.348;7.878;2023-01-01T06:29:47;17.00;58.40
68011;DHT22;54794;48.348;7.878;2023-01-01T06:32:17;17.00;58.40
68011;DHT22;54794;48.348;7.878;2023-01-01T06:34:48;17.00;58.30
68011;DHT22;54794;48.348;7.878;2023-01-01T06:37:20;17.00;58.30
68011;DHT22;54794;48.348;7.878;2023-01-01T06:39:55;17.00;58.30
68011;DHT22;54794;48.348;7.878;2023-01-01T06:42:27;17.00;58.30
68011;DHT22;54794;48.348;7.878;2023-01-01T06:45:06;17.00;58.30
68011;DHT22;54794;48.348;7.878;2023-01-01T06:47:42;16.90;58.00
68011;DHT22;54794;48.348;7.878;2023-01-01T06:50:10;16.90;58.20
68011;DHT22;54794;48.348;7.878;2023-01-01T06:52:40;16.90;58.20
68011;DHT22;54794;48.348;7.878;2023-01-01T06:55:13;16.90;58.20
68011;DHT22;54794;48.348;7.878;2023-01-01T06:57:40;16.90;58.20
68011;DHT22;54794;48.348;7.878;2023-01-01T07:00:15;16.90;58.20
68011;DHT22;54794;48.348;7.878;2023-01-01T07:02:47;16.90;58.20
68011;DHT22;54794;48.348;7.878;2023-01-01T07:05:17;16.80;58.10
68011;DHT22;54794;48.348;7.878;2023-01-01T07:07:46;16.90;58.20
68011;DHT22;54794;48.348;7.878;2023-01-01T07:10:18;16.80;58.10
68011;DHT22;54794;48.348;7.878;2023-01-01T07:12:51;16.90;58.10
68011;DHT22;54794;48.348;7.878;2023-01-01T07:15:22;16.80;58.10
68011;DHT22;54794;48.348;7.878;2023-01-01T07:17:58;16.80;58.10
68011;DHT22;54794;48.348;7.878;2023-01-01T07:20:27;16.90;58.10
68011;DHT22;54794;48.348;7.878;2023-01-01T07:22:57;16.80;58.10
68011;DHT22;54794;48.348;7.878;2023-01-01T07:25:29;16.80;58.00
68011;DHT22;54794;48.348;7.878;2023-01-01T07:28:04;16.80;58.10
68011;DHT22;54794;48.348;7.878;2023-01-01T07:30:35;16.80;58.10
68011;DHT22;54794;48.348;7.878;2023-01-01T07:33:15;16.80;58.10
68011;DHT22;54794;48.348;7.878;2023-01-01T07:35:50;16.70;58.00
68011;DHT22;54794;48.348;7.878;2023-01-01T07:38:19;16.80;58.10
68011;DHT22;54794;48.348;7.878;2023-01-01T07:40:52;16.80;58.00
68011;DHT22;54794;48.348;7.878;2023-01-01T07:43:22;16.80;58.00
68011;DHT22;54794;48.348;7.878;2023-01-01T07:45:51;16.80;58.00
68011;DHT22;54794;48.348;7.878;2023-01-01T07:48:23;16.80;58.00
68011;DHT22;54794;48.348;7.878;2023-01-01T07:51:11;16.90;58.00
68011;DHT22;54794;48.348;7.878;2023-01-01T07:53:40;17.00;58.00
68011;DHT22;54794;48.348;7.878;2023-01-01T07:56:07;16.80;57.90
68011;DHT22;54794;48.348;7.878;2023-01-01T07:58:44;16.80;57.90
68011;DHT22;54794;48.348;7.878;2023-01-01T08:01:14;16.80;58.40
68011;DHT22;54794;48.348;7.878;2023-01-01T08:03:51;16.80;57.90
68011;DHT22;54794;48.348;7.878;2023-01-01T08:06:20;16.80;57.80
68011;DHT22;54794;48.348;7.878;2023-01-01T08:08:53;16.80;57.90
68011;DHT22;54794;48.348;7.878;2023-01-01T08:11:23;16.80;57.90
68011;DHT22;54794;48.348;7.878;2023-01-01T08:13:53;16.80;57.90
68011;DHT22;54794;48.348;7.878;2023-01-01T08:16:30;16.80;57.90
68011;DHT22;54794;48.348;7.878;2023-01-01T08:18:59;16.80;57.90
68011;DHT22;54794;48.348;7.878;2023-01-01T08:21:28;16.80;57.90
68011;DHT22;54794;48.348;7.878;2023-01-01T08:23:59;16.80;57.90
68011;DHT22;54794;48.348;7.878;2023-01-01T08:26:32;16.80;57.80
68011;DHT22;54794;48.348;7.878;2023-01-01T08:29:04;16.80;57.70
68011;DHT22;54794;48.348;7.878;2023-01-01T08:31:32;16.80;57.90
68011;DHT22;54794;48.348;7.878;2023-01-01T08:34:04;16.80;57.80
68011;DHT22;54794;48.348;7.878;2023-01-01T08:36:33;16.80;57.80
68011;DHT22;54794;48.348;7.878;2023-01-01T08:39:03;16.80;57.80
68011;DHT22;54794;48.348;7.878;2023-01-01T08:41:35;16.80;57.90
68011;DHT22;54794;48.348;7.878;2023-01-01T08:44:10;16.80;57.80
68011;DHT22;54794;48.348;7.878;2023-01-01T08:46:38;16.80;57.80
68011;DHT22;54794;48.348;7.878;2023-01-01T08:49:05;16.80;57.90
68011;DHT22;54794;48.348;7.878;2023-01-01T08:51:38;17.00;57.90
68011;DHT22;54794;48.348;7.878;2023-01-01T08:54:06;16.90;57.90
68011;DHT22;54794;48.348;7.878;2023-01-01T08:56:37;16.90;57.80
68011;DHT22;54794;48.348;7.878;2023-01-01T08:59:06;16.90;58.30
68011;DHT22;54794;48.348;7.878;2023-01-01T09:01:33;16.90;57.80
68011;DHT22;54794;48.348;7.878;2023-01-01T09:04:00;16.90;57.80
68011;DHT22;54794;48.348;7.878;2023-01-01T09:06:40;16.90;57.80
68011;DHT22;54794;48.348;7.878;2023-01-01T09:09:14;16.90;57.90
68011;DHT22;54794;48.348;7.878;2023-01-01T09:11:53;17.00;57.90
68011;DHT22;54794;48.348;7.878;2023-01-01T09:14:23;17.00;57.70
68011;DHT22;54794;48.348;7.878;2023-01-01T09:16:53;17.00;57.90
68011;DHT22;54794;48.348;7.878;2023-01-01T09:19:24;17.00;57.90
68011;DHT22;54794;48.348;7.878;2023-01-01T09:21:53;17.10;57.90
68011;DHT22;54794;48.348;7.878;2023-01-01T09:24:22;17.10;57.90
68011;DHT22;54794;48.348;7.878;2023-01-01T09:26:51;17.10;57.90
68011;DHT22;54794;48.348;7.878;2023-01-01T09:29:19;17.20;57.90
68011;DHT22;54794;48.348;7.878;2023-01-01T09:31:50;17.20;57.80
68011;DHT22;54794;48.348;7.878;2023-01-01T09:34:17;17.30;57.90
68011;DHT22;54794;48.348;7.878;2023-01-01T09:36:51;17.40;57.90
68011;DHT22;54794;48.348;7.878;2023-01-01T09:39:19;17.30;57.70
68011;DHT22;54794;48.348;7.878;2023-01-01T09:42:06;17.40;57.80
68011;DHT22;54794;48.348;7.878;2023-01-01T09:47:48;17.50;57.60
68011;DHT22;54794;48.348;7.878;2023-01-01T09:50:27;17.60;57.70
68011;DHT22;54794;48.348;7.878;2023-01-01T09:53:34;17.60;57.50
68011;DHT22;54794;48.348;7.878;2023-01-01T09:56:16;17.60;57.30
68011;DHT22;54794;48.348;7.878;2023-01-01T09:58:46;17.70;57.60
68011;DHT22;54794;48.348;7.878;2023-01-01T10:16:02;18.00;57.60
68011;DHT22;54794;48.348;7.878;2023-01-01T10:18:36;18.00;57.90
68011;DHT22;54794;48.348;7.878;2023-01-01T10:26:47;18.20;57.20
68011;DHT22;54794;48.348;7.878;2023-01-01T10:29:31;18.20;57.30
68011;DHT22;54794;48.348;7.878;2023-01-01T10:32:35;18.30;56.90
68011;DHT22;54794;48.348;7.878;2023-01-01T10:35:11;18.30;56.80
68011;DHT22;54794;48.348;7.878;2023-01-01T10:37:57;18.30;56.70
68011;DHT22;54794;48.348;7.878;2023-01-01T10:40:28;18.40;57.00
68011;DHT22;54794;48.348;7.878;2023-01-01T10:43:01;18.40;56.90
68011;DHT22;54794;48.348;7.878;2023-01-01T10:45:33;18.50;56.90
68011;DHT22;54794;48.348;7.878;2023-01-01T10:48:17;18.50;56.80
68011;DHT22;54794;48.348;7.878;2023-01-01T10:56:22;18.70;56.30
68011;DHT22;54794;48.348;7.878;2023-01-01T10:58:54;18.70;56.40
68011;DHT22;54794;48.348;7.878;2023-01-01T11:01:32;18.70;56.40
68011;DHT22;54794;48.348;7.878;2023-01-01T11:04:19;18.70;56.20
68011;DHT22;54794;48.348;7.878;2023-01-01T11:06:53;18.80;55.90
68011;DHT22;54794;48.348;7.878;2023-01-01T11:09:28;18.80;56.40
68011;DHT22;54794;48.348;7.878;2023-01-01T11:12:06;18.90;56.10
68011;DHT22;54794;48.348;7.878;2023-01-01T11:15:20;18.90;56.10
68011;DHT22;54794;48.348;7.878;2023-01-01T11:18:02;18.90;55.60
68011;DHT22;54794;48.348;7.878;2023-01-01T11:20:41;19.00;55.70
68011;DHT22;54794;48.348;7.878;2023-01-01T11:23:32;19.00;56.00
68011;DHT22;54794;48.348;7.878;2023-01-01T11:26:18;19.00;55.40
68011;DHT22;54794;48.348;7.878;2023-01-01T11:31:46;19.00;55.20
68011;DHT22;54794;48.348;7.878;2023-01-01T11:34:33;19.10;55.80
68011;DHT22;54794;48.348;7.878;2023-01-01T11:37:28;19.10;54.80
68011;DHT22;54794;48.348;7.878;2023-01-01T11:40:03;19.10;55.10
68011;DHT22;54794;48.348;7.878;2023-01-01T11:42:36;19.20;55.60
68011;DHT22;54794;48.348;7.878;2023-01-01T11:45:38;19.20;55.50
68011;DHT22;54794;48.348;7.878;2023-01-01T11:48:32;19.20;55.10
68011;DHT22;54794;48.348;7.878;2023-01-01T11:51:11;19.30;55.20
68011;DHT22;54794;48.348;7.878;2023-01-01T11:57:09;19.30;54.80
68011;DHT22;54794;48.348;7.878;2023-01-01T12:00:01;19.30;55.00
68011;DHT22;54794;48.348;7.878;2023-01-01T12:03:00;19.40;55.00
68011;DHT22;54794;48.348;7.878;2023-01-01T12:06:28;19.40;55.10
68011;DHT22;54794;48.348;7.878;2023-01-01T12:18:17;19.50;54.00
68011;DHT22;54794;48.348;7.878;2023-01-01T12:20:59;19.60;54.40
68011;DHT22;54794;48.348;7.878;2023-01-01T12:23:37;19.60;54.20
68011;DHT22;54794;48.348;7.878;2023-01-01T12:30:04;19.70;54.10
68011;DHT22;54794;48.348;7.878;2023-01-01T12:42:10;19.80;54.10
68011;DHT22;54794;48.348;7.878;2023-01-01T12:51:06;19.90;53.30
68011;DHT22;54794;48.348;7.878;2023-01-01T12:54:18;20.00;53.90
68011;DHT22;54794;48.348;7.878;2023-01-01T12:57:32;20.00;53.80
68011;DHT22;54794;48.348;7.878;2023-01-01T13:00:19;20.10;53.60
68011;DHT22;54794;48.348;7.878;2023-01-01T13:03:04;19.90;54.30
68011;DHT22;54794;48.348;7.878;2023-01-01T13:05:53;20.20;53.80
68011;DHT22;54794;48.348;7.878;2023-01-01T13:08:22;20.20;53.20
68011;DHT22;54794;48.348;7.878;2023-01-01T13:10:57;20.20;53.80
68011;DHT22;54794;48.348;7.878;2023-01-01T13:13:38;20.20;53.80
68011;DHT22;54794;48.348;7.878;2023-01-01T13:16:35;20.30;53.70
68011;DHT22;54794;48.348;7.878;2023-01-01T13:19:31;20.30;52.90
68011;DHT22;54794;48.348;7.878;2023-01-01T13:22:35;20.40;52.80
68011;DHT22;54794;48.348;7.878;2023-01-01T13:25:21;20.30;52.70
68011;DHT22;54794;48.348;7.878;2023-01-01T13:38:51;20.50;52.50
68011;DHT22;54794;48.348;7.878;2023-01-01T13:56:02;20.60;51.90
68011;DHT22;54794;48.348;7.878;2023-01-01T14:01:37;20.70;52.60
68011;DHT22;54794;48.348;7.878;2023-01-01T14:04:40;20.70;51.80
68011;DHT22;54794;48.348;7.878;2023-01-01T14:07:54;21.00;52.10
68011;DHT22;54794;48.348;7.878;2023-01-01T14:10:36;20.80;52.00
68011;DHT22;54794;48.348;7.878;2023-01-01T14:13:18;20.80;52.60
68011;DHT22;54794;48.348;7.878;2023-01-01T14:16:04;20.90;52.20
68011;DHT22;54794;48.348;7.878;2023-01-01T14:18:50;21.10;52.50
68011;DHT22;54794;48.348;7.878;2023-01-01T14:21:31;20.90;51.80
68011;DHT22;54794;48.348;7.878;2023-01-01T14:24:15;20.90;51.90
68011;DHT22;54794;48.348;7.878;2023-01-01T14:26:51;20.90;52.00
68011;DHT22;54794;48.348;7.878;2023-01-01T14:29:35;21.00;52.20
68011;DHT22;54794;48.348;7.878;2023-01-01T14:32:20;21.00;52.30
68011;DHT22;54794;48.348;7.878;2023-01-01T14:35:01;21.00;52.10
68011;DHT22;54794;48.348;7.878;2023-01-01T14:37:36;21.00;51.50
68011;DHT22;54794;48.348;7.878;2023-01-01T14:40:24;21.00;52.00
68011;DHT22;54794;48.348;7.878;2023-01-01T14:43:04;21.00;51.90
68011;DHT22;54794;48.348;7.878;2023-01-01T14:46:00;21.00;51.50
68011;DHT22;54794;48.348;7.878;2023-01-01T14:48:37;21.00;51.90
68011;DHT22;54794;48.348;7.878;2023-01-01T14:51:20;21.00;51.80
68011;DHT22;54794;48.348;7.878;2023-01-01T14:53:57;21.00;51.50
68011;DHT22;54794;48.348;7.878;2023-01-01T14:56:53;21.00;51.50
68011;DHT22;54794;48.348;7.878;2023-01-01T14:59:32;21.00;51.50
68011;DHT22;54794;48.348;7.878;2023-01-01T15:02:29;20.90;51.40
68011;DHT22;54794;48.348;7.878;2023-01-01T15:05:32;20.80;51.30
68011;DHT22;54794;48.348;7.878;2023-01-01T15:08:15;20.80;50.90
68011;DHT22;54794;48.348;7.878;2023-01-01T15:10:49;20.70;51.30
68011;DHT22;54794;48.348;7.878;2023-01-01T15:13:27;20.70;51.30
68011;DHT22;54794;48.348;7.878;2023-01-01T15:16:16;20.70;51.30
68011;DHT22;54794;48.348;7.878;2023-01-01T15:18:51;20.60;50.50
68011;DHT22;54794;48.348;7.878;2023-01-01T15:21:37;20.50;51.30
68011;DHT22;54794;48.348;7.878;2023-01-01T15:24:18;20.50;50.90
68011;DHT22;54794;48.348;7.878;2023-01-01T15:26:57;20.40;51.00
68011;DHT22;54794;48.348;7.878;2023-01-01T15:29:48;20.30;50.70
68011;DHT22;54794;48.348;7.878;2023-01-01T15:32:47;20.20;51.00
68011;DHT22;54794;48.348;7.878;2023-01-01T15:35:35;20.10;50.90
68011;DHT22;54794;48.348;7.878;2023-01-01T15:38:22;20.00;50.80
68011;DHT22;54794;48.348;7.878;2023-01-01T15:41:45;19.90;50.80
68011;DHT22;54794;48.348;7.878;2023-01-01T15:44:48;19.80;50.60
68011;DHT22;54794;48.348;7.878;2023-01-01T15:47:17;19.70;50.80
68011;DHT22;54794;48.348;7.878;2023-01-01T15:53:34;19.40;51.00
68011;DHT22;54794;48.348;7.878;2023-01-01T15:56:40;19.30;51.40
68011;DHT22;54794;48.348;7.878;2023-01-01T15:59:26;19.20;51.40
68011;DHT22;54794;48.348;7.878;2023-01-01T16:02:18;19.10;51.60
68011;DHT22;54794;48.348;7.878;2023-01-01T16:04:49;19.00;51.50
68011;DHT22;54794;48.348;7.878;2023-01-01T16:07:26;19.00;51.80
68011;DHT22;54794;48.348;7.878;2023-01-01T16:10:02;18.90;51.80
68011;DHT22;54794;48.348;7.878;2023-01-01T16:12:34;18.80;51.90
68011;DHT22;54794;48.348;7.878;2023-01-01T16:15:04;18.80;52.00
68011;DHT22;54794;48.348;7.878;2023-01-01T16:17:43;18.60;52.00
68011;DHT22;54794;48.348;7.878;2023-01-01T16:20:15;18.60;52.10
68011;DHT22;54794;48.348;7.878;2023-01-01T16:22:52;18.50;52.10
68011;DHT22;54794;48.348;7.878;2023-01-01T16:25:21;18.40;52.20
68011;DHT22;54794;48.348;7.878;2023-01-01T16:28:02;18.30;52.20
68011;DHT22;54794;48.348;7.878;2023-01-01T16:30:39;18.20;52.30
68011;DHT22;54794;48.348;7.878;2023-01-01T16:33:17;18.10;52.30
68011;DHT22;54794;48.348;7.878;2023-01-01T16:35:53;18.00;52.40
68011;DHT22;54794;48.348;7.878;2023-01-01T16:38:22;17.90;52.40
68011;DHT22;54794;48.348;7.878;2023-01-01T16:40:53;17.80;52.40
68011;DHT22;54794;48.348;7.878;2023-01-01T16:43:24;17.80;52.60
68011;DHT22;54794;48.348;7.878;2023-01-01T16:45:52;17.70;52.50
68011;DHT22;54794;48.348;7.878;2023-01-01T16:48:19;17.60;52.60
68011;DHT22;54794;48.348;7.878;2023-01-01T16:50:52;17.60;52.60
68011;DHT22;54794;48.348;7.878;2023-01-01T16:53:24;17.50;52.80
68011;DHT22;54794;48.348;7.878;2023-01-01T16:55:52;17.50;52.90
68011;DHT22;54794;48.348;7.878;2023-01-01T16:58:19;17.40;52.90
68011;DHT22;54794;48.348;7.878;2023-01-01T17:01:07;17.30;52.80
68011;DHT22;54794;48.348;7.878;2023-01-01T17:03:34;17.30;52.90
68011;DHT22;54794;48.348;7.878;2023-01-01T17:06:09;17.20;52.90
68011;DHT22;54794;48.348;7.878;2023-01-01T17:08:39;17.20;53.00
68011;DHT22;54794;48.348;7.878;2023-01-01T17:11:21;17.10;52.90
68011;DHT22;54794;48.348;7.878;2023-01-01T17:13:50;17.10;53.20
68011;DHT22;54794;48.348;7.878;2023-01-01T17:16:20;17.00;53.10
68011;DHT22;54794;48.348;7.878;2023-01-01T17:19:01;17.00;53.10
68011;DHT22;54794;48.348;7.878;2023-01-01T17:21:54;16.90;53.10
68011;DHT22;54794;48.348;7.878;2023-01-01T17:24:23;16.80;53.00
68011;DHT22;54794;48.348;7.878;2023-01-01T17:27:00;16.80;53.00
68011;DHT22;54794;48.348;7.878;2023-01-01T17:29:37;16.80;53.00
68011;DHT22;54794;48.348;7.878;2023-01-01T17:32:14;16.70;53.10
68011;DHT22;54794;48.348;7.878;2023-01-01T17:34:46;16.70;53.10
68011;DHT22;54794;48.348;7.878;2023-01-01T17:37:20;16.60;53.20
68011;DHT22;54794;48.348;7.878;2023-01-01T17:39:54;16.60;53.10
68011;DHT22;54794;48.348;7.878;2023-01-01T17:42:26;16.50;53.20
68011;DHT22;54794;48.348;7.878;2023-01-01T17:48:25;16.40;53.20
68011;DHT22;54794;48.348;7.878;2023-01-01T17:50:55;16.40;53.20
68011;DHT22;54794;48.348;7.878;2023-01-01T17:54:26;16.30;53.30
68011;DHT22;54794;48.348;7.878;2023-01-01T17:56:57;16.20;53.30
68011;DHT22;54794;48.348;7.878;2023-01-01T18:00:13;16.30;53.50
68011;DHT22;54794;48.348;7.878;2023-01-01T18:03:04;15.70;53.20
68011;DHT22;54794;48.348;7.878;2023-01-01T18:06:37;16.10;53.40
68011;DHT22;54794;48.348;7.878;2023-01-01T18:13:05;16.00;53.60
68011;DHT22;54794;48.348;7.878;2023-01-01T18:15:38;16.00;53.50
68011;DHT22;54794;48.348;7.878;2023-01-01T18:18:08;16.00;53.60
68011;DHT22;54794;48.348;7.878;2023-01-01T18:20:40;15.90;53.60
68011;DHT22;54794;48.348;7.878;2023-01-01T18:23:09;15.90;53.60
68011;DHT22;54794;48.348;7.878;2023-01-01T18:25:44;15.90;53.80
68011;DHT22;54794;48.348;7.878;2023-01-01T18:28:14;15.90;53.80
68011;DHT22;54794;48.348;7.878;2023-01-01T18:30:44;15.90;53.80
68011;DHT22;54794;48.348;7.878;2023-01-01T18:33:18;15.90;53.80
68011;DHT22;54794;48.348;7.878;2023-01-01T18:35:56;15.90;53.90
68011;DHT22;54794;48.348;7.878;2023-01-01T18:38:32;15.90;53.90
68011;DHT22;54794;48.348;7.878;2023-01-01T18:44:29;15.90;54.00
68011;DHT22;54794;48.348;7.878;2023-01-01T18:49:36;15.80;53.90
68011;DHT22;54794;48.348;7.878;2023-01-01T18:54:36;15.80;53.80
68011;DHT22;54794;48.348;7.878;2023-01-01T18:57:15;15.70;53.80
68011;DHT22;54794;48.348;7.878;2023-01-01T18:59:57;15.70;53.80
68011;DHT22;54794;48.348;7.878;2023-01-01T19:03:03;15.70;53.80
68011;DHT22;54794;48.348;7.878;2023-01-01T19:05:39;15.60;54.10
68011;DHT22;54794;48.348;7.878;2023-01-01T19:08:11;15.60;53.90